createdAt,value
2023-02-07T00:00:22.209Z,94070.00
2023-02-07T00:01:22.202Z,94074.00
2023-02-07T00:02:22.320Z,94076.00
2023-02-07T00:03:22.252Z,94080.00
2023-02-07T00:04:22.277Z,94082.00
2023-02-07T00:05:22.321Z,94086.00
2023-02-07T00:06:22.355Z,94090.00
2023-02-07T00:07:22.368Z,94090.00
2023-02-07T00:08:22.400Z,94094.00
2023-02-07T00:09:22.422Z,94094.00
2023-02-07T00:10:22.453Z,94100.00
2023-02-07T00:11:22.471Z,94104.00
2023-02-07T00:12:22.505Z,94102.00
2023-02-07T00:13:22.544Z,94102.00
2023-02-07T00:14:22.560Z,94104.00
2023-02-07T00:15:22.594Z,94100.00
2023-02-07T00:16:22.649Z,94102.00
2023-02-07T00:17:22.637Z,94100.00
2023-02-07T00:18:22.658Z,94104.00
2023-02-07T00:19:22.695Z,94106.00
2023-02-07T00:20:22.717Z,94108.00
2023-02-07T00:21:22.742Z,94108.00
2023-02-07T00:22:22.763Z,94109.00
2023-02-07T00:23:22.777Z,94109.00
2023-02-07T00:24:22.818Z,94109.00
2023-02-07T00:25:22.830Z,94108.00
2023-02-07T00:26:22.857Z,94108.00
2023-02-07T00:27:22.878Z,94108.00
2023-02-07T00:28:23.010Z,94104.00
2023-02-07T00:29:22.925Z,94104.00
2023-02-07T00:30:22.988Z,94106.00
2023-02-07T00:31:23.130Z,94109.00
2023-02-07T00:32:23.012Z,94109.00
2023-02-07T00:33:23.045Z,94111.00
2023-02-07T04:25:28.289Z,94268.00
2023-02-07T04:26:28.323Z,94270.00
2023-02-07T04:42:28.792Z,94290.00
2023-02-07T04:43:28.821Z,94292.00
2023-02-07T04:44:28.847Z,94298.00
2023-02-07T04:45:28.937Z,94298.00
2023-02-07T04:46:28.904Z,94302.00
2023-02-07T04:47:28.931Z,94303.00
2023-02-07T04:48:28.953Z,94305.00
2023-02-07T04:49:28.973Z,94305.00
2023-02-07T04:50:29.007Z,94309.00
2023-02-07T04:51:29.044Z,94309.00
2023-02-07T04:52:29.081Z,94309.00
2023-02-07T04:54:29.134Z,94317.00
2023-02-07T04:55:29.176Z,94319.00
2023-02-07T04:56:29.220Z,94321.00
2023-02-07T04:57:29.232Z,94329.00
2023-02-07T04:58:29.269Z,94329.00
2023-02-07T04:59:29.300Z,94329.00
2023-02-07T05:00:29.330Z,94329.00
2023-02-07T05:01:29.415Z,94325.00
2023-02-07T05:02:29.397Z,94325.00
2023-02-07T05:03:29.429Z,94319.00
2023-02-07T05:04:29.531Z,94319.00
2023-02-07T05:05:29.503Z,94317.00
2023-02-07T05:06:29.531Z,94317.00
2023-02-07T05:07:29.559Z,94317.00
2023-02-07T05:08:29.610Z,94315.00
2023-02-07T05:09:29.628Z,94315.00
2023-02-07T05:10:29.666Z,94315.00
2023-02-07T05:11:29.696Z,94317.00
2023-02-07T05:12:29.708Z,94311.00
2023-02-07T05:13:29.744Z,94309.00
2023-02-07T09:04:38.103Z,94290.00
2023-02-07T09:05:38.168Z,94294.00
2023-02-07T09:06:38.224Z,94292.00
2023-02-07T09:07:38.282Z,94290.00
2023-02-07T09:08:38.352Z,94290.00
2023-02-07T09:09:38.427Z,94286.00
2023-02-07T09:10:38.863Z,94284.00
2023-02-07T09:11:38.597Z,94284.00
2023-02-07T09:12:38.608Z,94280.00
2023-02-07T09:13:38.675Z,94286.00
2023-02-07T09:14:38.786Z,94290.00
2023-02-07T09:15:38.843Z,94282.00
2023-02-07T09:16:38.929Z,94282.00
2023-02-07T09:17:38.986Z,94284.00
2023-02-07T09:18:39.096Z,94292.00
2023-02-07T09:19:39.163Z,94292.00
2023-02-07T09:20:39.572Z,94288.00
2023-02-07T09:21:39.314Z,94290.00
2023-02-07T09:22:39.387Z,94288.00
2023-02-07T09:23:39.463Z,94286.00
2023-02-07T09:25:40.778Z,94290.00
2023-02-07T09:26:39.515Z,94288.00
2023-02-07T09:27:39.519Z,94286.00
2023-02-07T09:28:39.544Z,94286.00
2023-02-07T09:29:39.584Z,94286.00
2023-02-07T09:30:39.680Z,94286.00
2023-02-07T09:31:39.813Z,94280.00
2023-02-07T09:32:39.677Z,94280.00
2023-02-07T09:33:39.712Z,94278.00
2023-02-07T09:34:39.760Z,94276.00
2023-02-07T09:35:39.792Z,94274.00
2023-02-07T09:36:39.828Z,94274.00
2023-02-07T09:37:48.736Z,94274.00
2023-02-07T09:39:39.898Z,94266.00
2023-02-07T09:40:40.197Z,94264.00
2023-02-07T09:41:39.917Z,94264.00
2023-02-07T09:42:39.926Z,94260.00
2023-02-07T09:43:40.082Z,94258.00
2023-02-07T09:44:40.217Z,94255.00
2023-02-07T09:45:40.031Z,94251.00
2023-02-07T09:46:40.002Z,94256.00
2023-02-07T09:47:40.021Z,94253.00
2023-02-07T09:48:40.056Z,94251.00
2023-02-07T09:49:40.058Z,94247.00
2023-02-07T09:50:40.553Z,94251.00
2023-02-07T09:51:40.100Z,94253.00
2023-02-07T09:52:40.110Z,94255.00
2023-02-07T09:53:40.115Z,94251.00
2023-02-07T09:54:40.130Z,94251.00
2023-02-07T09:55:40.548Z,94249.00
2023-02-07T09:56:40.164Z,94249.00
2023-02-07T09:57:40.185Z,94249.00
2023-02-07T09:58:41.022Z,94243.00
2023-02-07T09:59:40.240Z,94245.00
2023-02-07T10:00:40.610Z,94247.00
2023-02-07T10:01:40.299Z,94247.00
2023-02-07T10:02:40.346Z,94241.00
2023-02-07T10:03:40.342Z,94239.00
2023-02-07T10:04:40.394Z,94235.00
2023-02-07T10:05:40.424Z,94233.00
2023-02-07T11:28:43.788Z,94098.00
2023-02-07T11:29:43.822Z,94098.00
2023-02-07T11:30:43.878Z,94100.00
2023-02-07T11:31:43.930Z,94098.00
2023-02-07T11:32:43.914Z,94100.00
2023-02-07T11:33:43.945Z,94104.00
2023-02-07T11:34:43.983Z,94108.00
2023-02-07T11:35:44.012Z,94108.00
2023-02-07T11:36:44.039Z,94108.00
2023-02-07T11:37:44.071Z,94108.00
2023-02-07T11:38:44.092Z,94106.00
2023-02-07T11:39:44.140Z,94102.00
2023-02-07T11:40:44.165Z,94106.00
2023-02-07T11:41:44.207Z,94106.00
2023-02-07T11:42:44.240Z,94108.00
2023-02-07T11:43:44.263Z,94109.00
2023-02-07T11:44:44.305Z,94111.00
2023-02-07T11:45:44.352Z,94113.00
2023-02-07T11:46:44.368Z,94113.00
2023-02-07T11:47:44.394Z,94113.00
2023-02-07T11:48:44.413Z,94117.00
2023-02-07T11:49:44.435Z,94115.00
2023-02-07T11:50:44.465Z,94113.00
2023-02-07T11:51:44.493Z,94113.00
2023-02-07T11:52:44.525Z,94111.00
2023-02-07T11:53:45.117Z,94109.00
2023-02-07T11:54:44.581Z,94104.00
2023-02-07T11:55:44.610Z,94104.00
2023-02-07T11:56:44.649Z,94102.00
2023-02-07T11:57:44.668Z,94100.00
2023-02-07T11:58:44.701Z,94096.00
2023-02-07T11:59:44.782Z,94094.00
2023-02-07T12:00:44.766Z,94092.00
2023-02-07T12:01:44.825Z,94090.00
2023-02-07T12:02:44.812Z,94086.00
2023-02-07T12:04:44.882Z,94088.00
2023-02-07T12:05:44.892Z,94080.00
2023-02-07T12:06:44.915Z,94080.00
2023-02-07T12:07:44.943Z,94080.00
2023-02-07T12:08:44.957Z,94076.00
2023-02-07T12:09:44.994Z,94078.00
2023-02-07T12:10:45.023Z,94078.00
2023-02-07T12:11:45.042Z,94076.00
2023-02-07T12:12:45.068Z,94078.00
2023-02-07T12:13:45.086Z,94074.00
2023-02-07T12:14:45.123Z,94074.00
2023-02-07T12:15:45.124Z,94072.00
2023-02-07T12:16:45.139Z,94070.00
2023-02-07T12:17:45.180Z,94072.00
2023-02-07T12:18:45.214Z,94066.00
2023-02-07T12:19:45.216Z,94072.00
2023-02-07T12:20:45.252Z,94066.00
2023-02-07T12:21:45.252Z,94066.00
2023-02-07T12:22:53.216Z,94064.00
2023-02-07T12:23:46.303Z,94062.00
2023-02-07T12:24:45.271Z,94064.00
2023-02-07T12:25:45.280Z,94062.00
2023-02-07T12:26:45.285Z,94061.00
2023-02-07T12:27:45.296Z,94059.00
2023-02-07T12:28:45.288Z,94055.00
2023-02-07T12:29:45.300Z,94055.00
2023-02-07T12:30:45.374Z,94051.00
2023-02-07T12:31:45.505Z,94049.00
2023-02-07T12:32:45.437Z,94047.00
2023-02-07T12:33:45.308Z,94041.00
2023-02-07T12:34:45.321Z,94039.00
2023-02-07T12:35:55.597Z,94037.00
2023-02-07T12:37:45.340Z,94033.00
2023-02-07T12:38:45.349Z,94033.00
2023-02-07T12:39:45.351Z,94031.00
2023-02-07T12:40:45.360Z,94031.00
2023-02-07T12:41:45.377Z,94025.00
2023-02-07T12:42:45.391Z,94021.00
2023-02-07T12:43:45.399Z,94019.00
2023-02-07T12:44:46.411Z,94017.00
2023-02-07T12:45:45.441Z,94014.00
2023-02-07T12:46:45.423Z,94014.00
2023-02-07T12:47:45.434Z,94010.00
2023-02-07T12:48:45.435Z,94010.00
2023-02-07T12:49:45.430Z,94012.00
2023-02-07T12:50:45.450Z,94008.00
2023-02-07T12:51:45.466Z,94002.00
2023-02-07T12:52:45.493Z,94008.00
2023-02-07T12:53:45.500Z,94004.00
2023-02-07T14:19:48.114Z,93951.00
2023-02-07T14:20:48.142Z,93949.00
2023-02-07T14:21:48.172Z,93949.00
2023-02-07T14:22:48.222Z,93945.00
2023-02-07T14:23:48.267Z,93945.00
2023-02-07T14:24:48.303Z,93947.00
2023-02-07T14:28:48.491Z,93953.00
2023-02-07T14:44:49.159Z,93951.00
2023-02-07T18:50:58.134Z,94180.00
2023-02-07T18:51:58.174Z,94182.00
2023-02-07T18:52:58.225Z,94182.00
2023-02-07T18:53:58.266Z,94178.00
2023-02-07T18:54:58.301Z,94180.00
2023-02-07T18:55:58.350Z,94182.00
2023-02-07T18:56:58.406Z,94180.00
2023-02-07T18:57:58.440Z,94180.00
2023-02-07T18:58:58.481Z,94178.00
2023-02-07T18:59:58.551Z,94176.00
2023-02-07T19:00:58.580Z,94176.00
2023-02-07T19:01:58.616Z,94174.00
2023-02-07T19:02:58.663Z,94178.00
2023-02-07T19:03:58.704Z,94176.00
2023-02-07T19:04:58.784Z,94172.00
2023-02-07T19:05:58.798Z,94178.00
2023-02-07T19:06:58.842Z,94180.00
2023-02-07T19:07:58.889Z,94178.00
2023-02-07T19:08:58.922Z,94176.00
2023-02-07T19:09:58.952Z,94180.00
2023-02-07T19:10:58.997Z,94180.00
2023-02-07T19:11:59.031Z,94182.00
2023-02-07T19:12:59.071Z,94182.00
2023-02-07T19:13:59.122Z,94180.00
2023-02-07T19:14:59.159Z,94178.00
2023-02-07T19:15:59.238Z,94178.00
2023-02-07T19:16:59.244Z,94178.00
2023-02-07T19:17:59.279Z,94178.00
2023-02-07T19:18:59.344Z,94180.00
2023-02-07T19:19:59.414Z,94176.00
2023-02-07T19:20:59.419Z,94178.00
2023-02-07T19:21:59.456Z,94180.00
2023-02-07T19:22:59.515Z,94178.00
2023-02-07T19:23:59.560Z,94180.00
2023-02-07T19:24:59.611Z,94178.00
2023-02-07T19:25:59.662Z,94178.00
2023-02-07T19:26:59.711Z,94178.00
2023-02-07T19:27:59.764Z,94176.00
2023-02-07T19:28:59.787Z,94176.00
2023-02-07T19:29:59.840Z,94176.00
2023-02-07T19:30:59.936Z,94180.00
2023-02-07T19:31:59.936Z,94180.00
2023-02-07T19:32:59.982Z,94182.00
2023-02-07T19:34:00.013Z,94180.00
2023-02-07T19:35:00.073Z,94184.00
2023-02-07T19:36:00.118Z,94184.00
2023-02-07T19:37:00.150Z,94182.00
2023-02-07T19:38:00.195Z,94184.00
2023-02-07T19:39:00.246Z,94188.00
2023-02-07T19:40:00.313Z,94192.00
2023-02-07T19:41:00.351Z,94192.00
2023-02-07T19:42:00.386Z,94194.00
2023-02-07T19:43:00.433Z,94192.00
2023-02-07T19:44:00.485Z,94192.00
2023-02-07T19:45:00.601Z,94192.00
2023-02-07T19:46:00.589Z,94192.00
2023-02-07T19:47:00.621Z,94192.00
2023-02-07T19:48:00.659Z,94192.00
2023-02-07T19:49:00.712Z,94192.00
2023-02-07T19:50:00.758Z,94192.00
2023-02-07T19:51:00.811Z,94194.00
2023-02-07T19:52:00.857Z,94196.00
2023-02-07T19:53:00.906Z,94196.00
2023-02-07T19:54:00.947Z,94194.00
2023-02-07T19:55:00.993Z,94194.00
2023-02-07T19:56:01.045Z,94194.00
2023-02-07T19:57:01.078Z,94196.00
2023-02-07T19:58:01.115Z,94194.00
2023-02-07T19:59:01.162Z,94192.00
2023-02-07T20:00:01.207Z,94190.00
2023-02-07T20:01:01.260Z,94188.00
2023-02-07T20:02:01.352Z,94190.00
2023-02-07T20:03:01.346Z,94188.00
2023-02-07T20:04:01.526Z,94186.00
2023-02-07T20:05:01.430Z,94186.00
2023-02-07T20:06:01.512Z,94186.00
2023-02-07T20:07:01.554Z,94182.00
2023-02-07T20:08:01.608Z,94184.00
2023-02-07T20:09:01.609Z,94184.00
2023-02-07T20:10:01.657Z,94184.00
2023-02-07T20:11:01.711Z,94182.00
2023-02-07T20:12:01.748Z,94182.00
2023-02-07T20:13:01.790Z,94182.00
2023-02-07T20:14:01.857Z,94180.00
2023-02-07T20:15:01.919Z,94180.00
2023-02-07T20:16:01.933Z,94180.00
2023-02-07T20:17:01.979Z,94180.00
2023-02-07T20:18:02.018Z,94178.00
2023-02-07T20:19:02.065Z,94180.00
2023-02-07T20:20:02.096Z,94180.00
2023-02-07T20:21:10.884Z,94180.00
2023-02-07T20:22:03.196Z,94180.00
2023-02-07T20:23:02.186Z,94176.00
2023-02-07T20:24:02.190Z,94174.00
2023-02-07T20:25:02.212Z,94170.00
2023-02-07T20:26:02.208Z,94170.00
2023-02-07T20:27:02.228Z,94172.00
2023-02-07T20:28:02.263Z,94170.00
2023-02-07T20:29:02.272Z,94172.00
2023-02-07T20:30:02.301Z,94174.00
2023-02-07T20:31:02.400Z,94174.00
2023-02-07T20:32:02.376Z,94174.00
2023-02-07T20:33:02.315Z,94176.00
2023-02-07T20:34:02.341Z,94178.00
2023-02-07T20:35:02.358Z,94178.00
2023-02-07T20:36:02.374Z,94180.00
2023-02-07T20:37:02.361Z,94180.00
2023-02-07T20:38:02.387Z,94182.00
2023-02-07T20:39:02.403Z,94184.00
2023-02-07T20:40:02.469Z,94186.00
2023-02-07T20:41:02.511Z,94188.00
2023-02-07T20:42:02.572Z,94186.00
2023-02-07T20:43:02.603Z,94188.00
2023-02-07T20:44:04.928Z,94192.00
2023-02-07T20:45:02.864Z,94192.00
2023-02-07T20:46:02.918Z,94194.00
2023-02-07T20:47:03.077Z,94196.00
2023-02-07T20:48:03.008Z,94196.00
2023-02-07T20:49:03.062Z,94196.00
2023-02-07T20:50:03.090Z,94194.00
2023-02-07T20:51:03.143Z,94196.00
2023-02-07T20:52:03.210Z,94194.00
2023-02-07T20:53:03.246Z,94198.00
2023-02-07T20:54:03.310Z,94198.00
2023-02-07T20:55:03.337Z,94194.00
2023-02-07T20:56:03.388Z,94194.00
2023-02-07T20:57:03.430Z,94194.00
2023-02-07T20:58:03.470Z,94194.00
2023-02-07T20:59:03.529Z,94196.00
2023-02-07T21:00:03.569Z,94196.00
2023-02-07T21:01:03.716Z,94202.00
2023-02-07T21:02:03.746Z,94202.00
2023-02-07T21:03:03.717Z,94204.00
2023-02-07T21:04:03.774Z,94204.00
2023-02-07T21:05:03.819Z,94202.00
2023-02-07T21:06:03.869Z,94204.00
2023-02-07T21:07:03.933Z,94206.00
2023-02-07T21:08:03.964Z,94206.00
2023-02-07T21:09:04.014Z,94204.00
2023-02-07T21:10:04.860Z,94202.00
2023-02-07T21:11:04.113Z,94206.00
2023-02-07T21:12:04.179Z,94204.00
2023-02-07T21:13:04.245Z,94206.00
2023-02-07T21:14:04.273Z,94208.00
2023-02-07T21:15:04.306Z,94208.00
2023-02-07T21:16:04.357Z,94206.00
2023-02-07T21:17:04.403Z,94208.00
2023-02-07T21:18:04.450Z,94208.00
2023-02-07T21:19:04.521Z,94206.00
2023-02-07T21:20:04.548Z,94208.00
2023-02-07T21:21:04.623Z,94208.00
2023-02-07T21:22:04.652Z,94208.00
2023-02-07T21:23:04.682Z,94204.00
2023-02-07T21:24:04.776Z,94208.00
2023-02-07T21:25:04.789Z,94204.00
2023-02-07T21:26:04.820Z,94204.00
2023-02-07T21:27:04.877Z,94204.00
2023-02-07T21:28:04.939Z,94202.00
2023-02-07T21:29:04.958Z,94206.00
2023-02-07T21:30:05.023Z,94204.00
2023-02-07T21:31:05.182Z,94204.00
2023-02-07T21:32:05.179Z,94204.00
2023-02-07T21:33:05.178Z,94204.00
2023-02-07T21:34:05.221Z,94204.00
2023-02-07T21:35:05.273Z,94204.00
2023-02-07T21:36:05.305Z,94206.00
2023-02-07T21:37:05.355Z,94206.00
2023-02-07T21:38:05.428Z,94206.00
2023-02-07T21:39:05.441Z,94208.00
2023-02-07T21:40:05.494Z,94206.00
2023-02-07T21:41:05.547Z,94208.00
2023-02-07T21:42:05.591Z,94206.00
2023-02-07T21:43:05.637Z,94208.00
2023-02-07T21:44:05.674Z,94208.00
2023-02-07T21:45:05.729Z,94208.00
2023-02-07T21:46:05.822Z,94206.00
2023-02-07T21:47:05.825Z,94206.00
2023-02-07T21:48:05.860Z,94206.00
2023-02-07T21:49:05.913Z,94206.00
2023-02-07T21:51:06.009Z,94206.00
2023-02-07T22:35:08.158Z,94235.00
2023-02-07T22:36:08.202Z,94235.00
2023-02-07T22:37:08.251Z,94231.00
2023-02-07T22:38:08.309Z,94235.00
2023-02-07T22:39:08.354Z,94235.00
2023-02-07T22:40:08.394Z,94239.00
2023-02-07T22:41:08.455Z,94241.00
2023-02-07T22:42:08.498Z,94241.00
2023-02-07T22:43:08.591Z,94245.00
2023-02-07T22:44:08.578Z,94243.00
2023-02-07T22:45:08.624Z,94243.00
2023-02-07T22:46:08.722Z,94245.00
2023-02-07T22:47:08.726Z,94243.00
2023-02-07T22:48:08.762Z,94243.00
2023-02-07T22:49:08.827Z,94245.00
2023-02-07T22:50:08.865Z,94245.00
2023-02-07T22:51:08.916Z,94247.00
2023-02-07T22:52:08.971Z,94249.00
2023-02-07T22:53:09.016Z,94249.00
2023-02-07T22:54:09.069Z,94251.00
2023-02-07T22:55:09.111Z,94251.00
2023-02-07T22:56:09.155Z,94253.00
2023-02-07T22:57:09.201Z,94249.00
2023-02-07T22:58:09.239Z,94251.00
2023-02-07T22:59:09.310Z,94251.00
2023-02-07T23:00:09.346Z,94253.00
2023-02-07T23:01:09.400Z,94253.00
2023-02-07T23:02:09.445Z,94256.00
2023-02-07T23:03:09.464Z,94258.00
2023-02-07T23:04:09.558Z,94256.00
2023-02-07T23:05:09.564Z,94256.00
2023-02-07T23:06:09.623Z,94256.00
2023-02-07T23:07:09.663Z,94258.00
2023-02-07T23:08:09.710Z,94256.00
2023-02-07T23:09:09.748Z,94255.00
2023-02-07T23:10:09.806Z,94256.00
2023-02-07T23:11:09.859Z,94258.00
2023-02-07T23:12:09.893Z,94258.00
2023-02-07T23:13:09.952Z,94262.00
2023-02-07T23:14:09.992Z,94260.00
2023-02-07T23:15:10.055Z,94262.00
2023-02-07T23:16:10.134Z,94262.00
2023-02-07T23:17:10.149Z,94260.00
2023-02-07T23:18:10.196Z,94260.00
2023-02-07T23:19:10.234Z,94260.00
2023-02-07T23:20:10.286Z,94262.00
2023-02-07T23:21:10.332Z,94262.00
2023-02-07T23:22:10.389Z,94262.00
2023-02-07T23:23:10.430Z,94262.00
2023-02-07T23:50:11.746Z,94249.00
2023-02-07T23:51:11.839Z,94249.00
2023-02-07T23:52:11.860Z,94249.00
2023-02-07T23:53:11.902Z,94249.00
2023-02-07T23:54:11.945Z,94251.00
2023-02-07T23:55:12.019Z,94251.00
2023-02-07T23:56:12.052Z,94249.00
2023-02-07T23:57:12.145Z,94247.00
2023-02-07T23:58:12.182Z,94243.00
2023-02-07T23:59:12.225Z,94245.00
